Time;durP1;ratioP1;P1;durP2;ratioP2;P2;SDS_P1;SDS_P2;PMS_P1;PMS_P2;Temp;Humidity;BMP_temperature;BMP_pressure;BME280_temperature;BME280_humidity;BME280_pressure;Samples;Min_cycle;Max_cycle;Signal;HPM_P1;HPM_P2
2022/06/19 00:01:28;;;;;;;4.43;0.75;;;15.50;99.90;;;;;;5092981;28;20052;-75
2022/06/19 00:03:56;;;;;;;5.28;0.85;;;15.40;99.90;;;;;;5092478;28;20442;-74
2022/06/19 00:06:22;;;;;;;7.50;0.90;;;15.40;99.90;;;;;;5093455;28;20083;-75
2022/06/19 00:08:49;;;;;;;6.50;1.10;;;15.40;99.90;;;;;;5093421;28;20055;-75
2022/06/19 00:11:18;;;;;;;6.63;0.80;;;15.40;99.90;;;;;;5092279;28;20048;-75
2022/06/19 00:13:45;;;;;;;10.07;1.20;;;15.40;99.90;;;;;;5093371;28;20043;-74
2022/06/19 00:16:11;;;;;;;4.53;0.75;;;15.30;99.90;;;;;;5093554;28;20056;-75
2022/06/19 00:18:38;;;;;;;3.70;0.70;;;15.30;99.90;;;;;;5093274;28;20421;-75
2022/06/19 00:21:05;;;;;;;9.48;0.80;;;15.30;99.90;;;;;;5092827;28;20044;-74
2022/06/19 00:23:31;;;;;;;4.85;0.80;;;15.30;99.90;;;;;;5093670;28;20122;-75
2022/06/19 00:25:57;;;;;;;7.15;0.70;;;15.30;99.90;;;;;;5092390;28;20186;-75
2022/06/19 00:28:23;;;;;;;4.32;0.52;;;15.30;99.90;;;;;;5093083;28;20044;-74
2022/06/19 00:30:49;;;;;;;3.63;0.60;;;15.30;99.90;;;;;;5095188;28;20055;-74
2022/06/19 00:33:15;;;;;;;4.75;0.80;;;15.20;99.90;;;;;;5097318;28;20066;-73
2022/06/19 00:35:41;;;;;;;5.85;0.60;;;15.20;99.90;;;;;;5097068;28;20079;-74
2022/06/19 00:38:08;;;;;;;3.17;0.77;;;15.20;99.90;;;;;;5096964;28;20036;-75
2022/06/19 00:40:33;;;;;;;4.40;0.55;;;15.20;99.90;;;;;;5079343;28;20059;-75
2022/06/19 00:42:59;;;;;;;3.95;0.60;;;15.20;99.90;;;;;;5097041;28;20044;-75
2022/06/19 00:45:49;;;;;;;6.03;0.70;;;15.20;99.90;;;;;;5096978;28;20377;-75
2022/06/19 00:48:24;;;;;;;4.78;0.98;;;15.20;99.90;;;;;;5096621;28;20480;-75
2022/06/19 00:50:52;;;;;;;3.10;0.60;;;15.20;99.90;;;;;;5096313;28;20048;-74
2022/06/19 00:53:29;;;;;;;6.13;0.60;;;15.20;99.90;;;;;;5096902;28;20131;-75
2022/06/19 00:55:57;;;;;;;5.45;0.70;;;15.20;99.90;;;;;;5096700;28;20055;-74
2022/06/19 00:58:26;;;;;;;6.20;1.00;;;15.20;99.90;;;;;;5096518;28;20048;-74
2022/06/19 01:00:58;;;;;;;1.85;0.63;;;15.10;99.90;;;;;;5095698;28;20043;-74
2022/06/19 01:03:33;;;;;;;6.82;0.75;;;15.10;99.90;;;;;;5079356;28;20377;-75
2022/06/19 01:05:58;;;;;;;3.60;0.77;;;15.10;99.90;;;;;;5097231;28;20384;-74
2022/06/19 01:08:24;;;;;;;4.70;0.60;;;15.10;99.90;;;;;;5097249;28;20044;-75
2022/06/19 01:10:52;;;;;;;4.28;0.70;;;15.10;99.90;;;;;;5095483;28;20154;-75
2022/06/19 01:13:22;;;;;;;6.65;0.70;;;15.10;99.90;;;;;;5096382;28;20048;-75
2022/06/19 01:15:49;;;;;;;3.33;0.50;;;15.10;99.90;;;;;;5096345;28;20036;-74
2022/06/19 01:18:15;;;;;;;6.75;0.70;;;15.10;99.90;;;;;;5097067;28;20075;-74
2022/06/19 01:20:42;;;;;;;3.65;0.63;;;15.10;99.90;;;;;;5096233;28;20040;-74
2022/06/19 01:23:33;;;;;;;6.13;1.10;;;15.10;99.90;;;;;;5095592;28;20492;-74
2022/06/19 01:25:59;;;;;;;4.10;0.70;;;15.10;99.90;;;;;;5095174;28;20400;-74
2022/06/19 01:28:45;;;;;;;4.82;0.80;;;15.10;99.90;;;;;;5096042;28;20055;-74
2022/06/19 01:31:17;;;;;;;6.43;0.80;;;15.10;99.90;;;;;;5095101;28;20044;-73
2022/06/19 01:33:55;;;;;;;7.07;1.00;;;15.10;99.90;;;;;;5096085;28;20040;-74
2022/06/19 01:36:22;;;;;;;5.75;0.75;;;15.10;99.90;;;;;;5095999;28;20274;-73
2022/06/19 01:38:51;;;;;;;7.45;1.00;;;15.10;99.90;;;;;;5095906;28;20040;-74
2022/06/19 01:41:28;;;;;;;8.00;1.35;;;15.00;99.90;;;;;;5095731;28;20047;-72
2022/06/19 01:43:54;;;;;;;8.90;1.10;;;15.00;99.90;;;;;;5096077;28;20134;-71
2022/06/19 01:46:20;;;;;;;5.90;0.93;;;14.90;99.90;;;;;;5095797;28;20462;-73
2022/06/19 01:48:46;;;;;;;7.43;0.73;;;14.90;99.90;;;;;;5095756;28;20044;-69
2022/06/19 01:51:12;;;;;;;6.13;0.85;;;14.90;99.90;;;;;;5095261;28;20135;-73
2022/06/19 01:53:49;;;;;;;6.72;0.82;;;14.80;99.90;;;;;;5096097;28;20097;-74
2022/06/19 01:56:15;;;;;;;7.07;1.30;;;14.90;99.90;;;;;;5095915;28;20070;-73
2022/06/19 01:58:47;;;;;;;6.50;1.17;;;14.80;99.90;;;;;;5095730;28;20052;-74
2022/06/19 02:01:12;;;;;;;8.77;1.83;;;14.90;99.90;;;;;;5078116;28;20052;-73
2022/06/19 02:03:52;;;;;;;11.07;1.67;;;14.90;99.90;;;;;;5095475;28;20056;-74
2022/06/19 02:06:23;;;;;;;13.25;1.17;;;14.90;99.90;;;;;;5094645;28;20044;-73
2022/06/19 02:08:49;;;;;;;7.70;1.02;;;14.90;99.90;;;;;;5094177;28;20437;-73
2022/06/19 02:11:16;;;;;;;10.55;1.85;;;15.00;99.90;;;;;;5095287;28;20139;-73
2022/06/19 02:13:43;;;;;;;10.40;1.38;;;15.00;99.90;;;;;;5095229;28;20036;-73
2022/06/19 02:16:13;;;;;;;9.77;1.10;;;15.00;99.90;;;;;;5094881;28;20519;-74
2022/06/19 02:18:42;;;;;;;10.57;1.77;;;15.00;99.90;;;;;;5094463;28;20098;-73
2022/06/19 02:21:15;;;;;;;6.40;1.10;;;15.00;99.90;;;;;;5076739;28;20048;-73
2022/06/19 02:23:41;;;;;;;8.98;1.58;;;15.00;99.90;;;;;;5094222;28;20126;-76
2022/06/19 02:26:10;;;;;;;10.32;1.42;;;15.00;99.90;;;;;;5095054;28;20137;-75
2022/06/19 02:28:38;;;;;;;9.93;1.60;;;14.90;99.90;;;;;;5095049;28;20048;-74
2022/06/19 02:31:08;;;;;;;7.00;0.93;;;14.90;99.90;;;;;;5094995;28;20043;-74
2022/06/19 02:33:46;;;;;;;8.02;1.50;;;15.00;99.90;;;;;;5094905;28;20097;-74
2022/06/19 02:36:37;;;;;;;9.43;1.13;;;15.00;99.90;;;;;;5094869;28;20055;-75
2022/06/19 02:39:20;;;;;;;8.50;1.15;;;15.00;99.90;;;;;;5094748;28;20085;-72
2022/06/19 02:41:54;;;;;;;11.93;1.23;;;15.00;99.90;;;;;;5094843;28;20508;-74
2022/06/19 02:44:21;;;;;;;5.82;1.10;;;14.90;99.90;;;;;;5094913;28;20059;-75
2022/06/19 02:46:47;;;;;;;7.78;1.48;;;15.00;99.90;;;;;;5094689;28;20396;-76
2022/06/19 02:49:12;;;;;;;9.45;1.33;;;15.00;99.90;;;;;;5094894;28;20040;-76
2022/06/19 02:51:38;;;;;;;12.77;1.27;;;14.90;99.90;;;;;;5094121;28;20430;-73
2022/06/19 02:54:04;;;;;;;8.63;1.30;;;14.90;99.90;;;;;;5093969;28;20534;-76
2022/06/19 02:56:29;;;;;;;5.38;1.10;;;14.90;99.90;;;;;;5076275;28;20381;-75
2022/06/19 02:58:55;;;;;;;9.68;1.13;;;14.90;99.90;;;;;;5094242;28;20048;-74
2022/06/19 03:01:21;;;;;;;6.78;1.20;;;15.00;99.90;;;;;;5094373;28;20518;-74
2022/06/19 03:03:46;;;;;;;10.13;1.35;;;14.90;99.90;;;;;;5092835;28;20051;-74
2022/06/19 03:06:12;;;;;;;8.60;1.20;;;14.90;99.90;;;;;;5094659;28;20055;-74
2022/06/19 03:08:38;;;;;;;7.90;1.13;;;14.90;99.90;;;;;;5094184;28;20170;-72
2022/06/19 03:11:05;;;;;;;9.05;1.20;;;14.90;99.90;;;;;;5094203;28;20392;-71
2022/06/19 03:13:31;;;;;;;5.90;0.82;;;14.90;99.90;;;;;;5093233;28;20388;-72
2022/06/19 03:16:06;;;;;;;6.78;1.10;;;14.90;99.90;;;;;;5092962;28;20040;-73
2022/06/19 03:18:32;;;;;;;4.88;1.05;;;14.80;99.90;;;;;;5094308;28;20396;-72
2022/06/19 03:20:58;;;;;;;8.57;1.20;;;14.80;99.90;;;;;;5093429;28;20044;-72
2022/06/19 03:23:24;;;;;;;8.82;1.45;;;14.80;99.90;;;;;;5093027;28;20048;-74
2022/06/19 03:25:50;;;;;;;7.25;1.00;;;14.80;99.90;;;;;;5092510;28;20046;-74
2022/06/19 03:28:16;;;;;;;9.48;1.73;;;14.70;99.90;;;;;;5092928;28;20051;-72
2022/06/19 03:30:41;;;;;;;9.07;1.58;;;14.60;99.90;;;;;;5093898;28;20398;-73
2022/06/19 03:33:07;;;;;;;10.10;1.80;;;14.50;99.90;;;;;;5092911;28;20475;-73
2022/06/19 03:35:33;;;;;;;6.75;1.20;;;14.40;99.90;;;;;;5092904;28;20046;-73
2022/06/19 03:37:58;;;;;;;8.38;1.45;;;14.30;99.90;;;;;;5092576;28;20054;-73
2022/06/19 03:40:24;;;;;;;11.52;1.20;;;14.20;99.90;;;;;;5093760;28;20083;-73
2022/06/19 03:42:50;;;;;;;10.70;1.35;;;14.10;99.90;;;;;;5093800;28;20098;-73
2022/06/19 03:45:15;;;;;;;7.00;1.05;;;14.10;99.90;;;;;;5092606;28;20052;-72
2022/06/19 03:47:41;;;;;;;9.55;1.70;;;14.00;99.90;;;;;;5093738;28;20040;-71
2022/06/19 03:50:08;;;;;;;11.27;1.35;;;14.00;99.90;;;;;;5093731;28;20042;-73
2022/06/19 03:52:33;;;;;;;6.55;1.30;;;13.90;99.90;;;;;;5093214;28;20473;-71
2022/06/19 03:54:59;;;;;;;10.98;1.63;;;13.90;99.90;;;;;;5093647;28;20091;-72
2022/06/19 03:57:25;;;;;;;10.60;1.73;;;13.90;99.90;;;;;;5093144;28;20056;-72
2022/06/19 03:59:51;;;;;;;8.57;1.40;;;13.90;99.90;;;;;;5093595;28;20546;-72
2022/06/19 04:02:18;;;;;;;10.85;1.05;;;13.90;99.90;;;;;;5092606;28;20051;-73
2022/06/19 04:04:44;;;;;;;7.07;1.10;;;13.90;99.90;;;;;;5093755;28;20051;-73
2022/06/19 04:07:12;;;;;;;7.47;1.23;;;13.90;99.90;;;;;;5097857;28;20123;-72
2022/06/19 04:09:38;;;;;;;14.45;1.50;;;14.00;99.90;;;;;;5097753;28;20044;-73
2022/06/19 04:12:04;;;;;;;9.02;1.48;;;14.00;99.90;;;;;;5079656;28;20048;-73
2022/06/19 04:14:30;;;;;;;9.45;1.17;;;14.00;99.90;;;;;;5097642;28;20048;-73
2022/06/19 04:16:55;;;;;;;7.75;1.27;;;14.00;99.90;;;;;;5096351;28;20393;-73
2022/06/19 04:19:21;;;;;;;9.20;1.05;;;14.00;99.90;;;;;;5097517;28;20051;-73
2022/06/19 04:21:47;;;;;;;10.07;1.42;;;14.10;99.90;;;;;;5096890;28;20094;-74
2022/06/19 04:24:17;;;;;;;12.43;1.35;;;14.10;99.90;;;;;;5097480;28;20044;-74
2022/06/19 04:26:43;;;;;;;13.27;1.58;;;14.10;99.90;;;;;;5097524;28;20051;-74
2022/06/19 04:29:11;;;;;;;7.75;1.10;;;14.10;99.90;;;;;;5096443;28;20395;-74
2022/06/19 04:31:37;;;;;;;6.93;1.20;;;14.10;99.90;;;;;;5095850;28;20472;-74
2022/06/19 04:34:03;;;;;;;10.38;1.05;;;14.00;99.90;;;;;;5095927;28;20091;-74
2022/06/19 04:36:30;;;;;;;11.82;1.23;;;14.00;99.90;;;;;;5096177;28;20043;-74
2022/06/19 04:38:57;;;;;;;5.97;1.20;;;13.90;99.90;;;;;;5096215;28;20079;-73
2022/06/19 04:41:31;;;;;;;8.93;1.20;;;13.80;99.90;;;;;;5097137;28;20062;-74
2022/06/19 04:43:59;;;;;;;7.18;1.20;;;13.80;99.90;;;;;;5096263;28;20054;-74
2022/06/19 04:46:26;;;;;;;9.75;1.25;;;13.70;99.90;;;;;;5096973;28;20036;-74
2022/06/19 04:48:53;;;;;;;7.53;0.90;;;13.60;99.90;;;;;;5097019;28;20086;-74
2022/06/19 04:51:19;;;;;;;10.00;1.75;;;13.60;99.90;;;;;;5096763;28;20059;-74
2022/06/19 04:53:45;;;;;;;9.30;1.45;;;13.60;99.90;;;;;;5096207;28;20437;-75
2022/06/19 04:56:13;;;;;;;10.88;1.10;;;13.50;99.90;;;;;;5103513;28;20051;-74
2022/06/19 04:58:39;;;;;;;6.47;1.17;;;13.50;99.90;;;;;;5102982;28;20056;-75
2022/06/19 05:01:19;;;;;;;8.73;1.25;;;13.50;99.90;;;;;;5099084;28;20055;-74
2022/06/19 05:03:44;;;;;;;10.38;1.23;;;13.50;99.90;;;;;;5096216;28;20140;-73
2022/06/19 05:06:10;;;;;;;9.55;1.00;;;13.40;99.90;;;;;;5096922;28;20104;-74
2022/06/19 05:08:36;;;;;;;9.02;1.08;;;13.50;99.90;;;;;;5096897;28;20043;-74
2022/06/19 05:11:02;;;;;;;10.45;1.48;;;13.50;99.90;;;;;;5096210;28;20503;-74
2022/06/19 05:13:28;;;;;;;8.00;0.93;;;13.50;99.90;;;;;;5096463;28;20075;-75
2022/06/19 05:16:10;;;;;;;7.97;1.08;;;13.50;99.90;;;;;;5096009;28;20051;-74
2022/06/19 05:18:36;;;;;;;6.80;0.93;;;13.50;99.90;;;;;;5096335;28;20044;-73
2022/06/19 05:21:04;;;;;;;6.45;1.10;;;13.60;99.90;;;;;;5095892;28;20048;-71
2022/06/19 05:23:34;;;;;;;5.93;1.15;;;13.60;99.90;;;;;;5096276;28;20043;-72
2022/06/19 05:26:04;;;;;;;8.70;1.23;;;13.60;99.90;;;;;;5096286;28;20048;-74
2022/06/19 05:28:30;;;;;;;6.28;1.00;;;13.60;99.90;;;;;;5096196;28;20051;-70
2022/06/19 05:30:58;;;;;;;7.97;1.15;;;13.70;99.90;;;;;;5095236;28;20067;-73
2022/06/19 05:33:24;;;;;;;14.25;1.35;;;13.80;99.90;;;;;;5096200;28;20158;-73
2022/06/19 05:35:51;;;;;;;9.30;1.20;;;13.80;99.90;;;;;;5078264;28;20090;-73
2022/06/19 05:38:16;;;;;;;9.27;1.20;;;13.90;99.90;;;;;;5096065;28;20043;-74
2022/06/19 05:40:42;;;;;;;7.32;1.20;;;13.80;99.90;;;;;;5094722;28;20052;-75
2022/06/19 05:43:08;;;;;;;4.97;1.05;;;13.80;99.90;;;;;;5095861;28;20147;-74
2022/06/19 05:45:35;;;;;;;8.25;1.25;;;13.90;99.90;;;;;;5095910;28;20051;-75
2022/06/19 05:48:01;;;;;;;11.57;1.55;;;13.90;99.90;;;;;;5095845;28;20514;-74
2022/06/19 05:50:26;;;;;;;9.45;1.30;;;13.90;99.90;;;;;;5095859;28;20044;-74
2022/06/19 05:52:52;;;;;;;8.27;1.10;;;13.80;99.90;;;;;;5095291;28;20051;-73
2022/06/19 05:55:18;;;;;;;6.18;1.13;;;13.80;99.90;;;;;;5077964;28;20240;-75
2022/06/19 05:57:46;;;;;;;9.55;1.60;;;13.80;99.90;;;;;;5095588;28;20047;-74
2022/06/19 06:00:13;;;;;;;9.07;1.45;;;13.80;99.90;;;;;;5095253;28;20387;-74
2022/06/19 06:02:38;;;;;;;9.05;1.10;;;13.80;99.90;;;;;;5095567;28;20143;-74
2022/06/19 06:05:04;;;;;;;7.80;1.30;;;13.90;99.90;;;;;;5095218;28;20127;-73
2022/06/19 06:07:30;;;;;;;7.97;1.83;;;13.80;99.90;;;;;;5094708;28;20052;-74
2022/06/19 06:09:56;;;;;;;8.90;1.55;;;13.80;99.90;;;;;;5094507;28;20051;-75
2022/06/19 06:12:22;;;;;;;9.15;1.35;;;13.80;99.90;;;;;;5094265;28;20085;-74
2022/06/19 06:14:48;;;;;;;7.22;1.23;;;13.80;99.90;;;;;;5095393;28;20169;-74
2022/06/19 06:17:14;;;;;;;6.70;1.30;;;13.80;99.90;;;;;;5095276;28;20062;-74
2022/06/19 06:19:40;;;;;;;10.77;1.30;;;13.80;99.90;;;;;;5095391;28;20135;-74
2022/06/19 06:22:09;;;;;;;11.50;1.20;;;13.80;99.90;;;;;;5094711;28;20051;-74
2022/06/19 06:24:34;;;;;;;12.18;1.30;;;13.80;99.90;;;;;;5095598;28;20039;-73
2022/06/19 06:27:03;;;;;;;8.48;1.25;;;13.70;99.90;;;;;;5095293;28;20527;-73
2022/06/19 06:29:29;;;;;;;5.15;0.90;;;13.70;99.90;;;;;;5094333;28;20048;-73
2022/06/19 06:31:57;;;;;;;6.25;0.80;;;13.70;99.90;;;;;;5094087;28;20040;-73
2022/06/19 06:34:24;;;;;;;6.40;1.30;;;13.60;99.90;;;;;;5095351;28;20048;-73
2022/06/19 06:36:50;;;;;;;7.53;1.40;;;13.60;99.90;;;;;;5094941;28;20051;-73
2022/06/19 06:39:15;;;;;;;8.98;1.08;;;13.70;99.90;;;;;;5094780;28;20047;-74
2022/06/19 06:41:41;;;;;;;10.63;1.50;;;13.70;99.90;;;;;;5076598;28;20044;-74
2022/06/19 06:44:12;;;;;;;7.00;1.13;;;13.70;99.90;;;;;;5094681;28;20054;-74
2022/06/19 06:46:38;;;;;;;8.50;1.23;;;13.70;99.90;;;;;;5094716;28;20036;-73
2022/06/19 06:49:04;;;;;;;5.65;1.20;;;13.70;99.90;;;;;;5094586;28;20043;-73
2022/06/19 06:51:31;;;;;;;4.32;0.85;;;13.60;99.90;;;;;;5094056;28;20044;-73
2022/06/19 06:53:59;;;;;;;8.40;1.17;;;13.70;99.90;;;;;;5094883;28;20055;-74
2022/06/19 06:56:25;;;;;;;9.25;1.20;;;13.70;99.90;;;;;;5094492;28;20050;-73
2022/06/19 06:58:51;;;;;;;9.95;1.40;;;13.70;99.90;;;;;;5094405;28;20032;-73
2022/06/19 07:01:20;;;;;;;10.45;1.48;;;13.70;99.90;;;;;;5094366;28;20054;-72
2022/06/19 07:03:49;;;;;;;8.30;1.30;;;13.70;99.90;;;;;;5094368;28;20594;-73
2022/06/19 07:06:15;;;;;;;9.13;1.15;;;13.70;99.90;;;;;;5093028;28;20135;-73
2022/06/19 07:08:41;;;;;;;9.15;1.30;;;13.70;99.90;;;;;;5094237;28;20079;-73
2022/06/19 07:11:13;;;;;;;7.75;1.10;;;13.70;99.90;;;;;;5094259;28;20052;-75
2022/06/19 07:13:38;;;;;;;11.77;1.33;;;13.70;99.90;;;;;;5094062;28;20055;-73
2022/06/19 07:16:04;;;;;;;10.88;1.50;;;13.70;99.90;;;;;;5094352;28;20048;-73
2022/06/19 07:18:30;;;;;;;8.20;1.40;;;13.80;99.90;;;;;;5094173;28;20039;-73
2022/06/19 07:20:55;;;;;;;6.65;1.38;;;13.80;99.90;;;;;;5094182;28;20052;-73
2022/06/19 07:23:21;;;;;;;11.20;1.60;;;13.80;99.90;;;;;;5093742;28;20040;-74
2022/06/19 07:25:47;;;;;;;9.70;1.63;;;13.80;99.90;;;;;;5092470;28;20059;-75
2022/06/19 07:28:16;;;;;;;11.05;1.58;;;13.90;99.90;;;;;;5092723;28;20079;-75
2022/06/19 07:30:42;;;;;;;9.10;1.35;;;13.90;99.90;;;;;;5093690;28;20059;-74
2022/06/19 07:33:08;;;;;;;8.02;1.50;;;13.90;99.90;;;;;;5093283;28;20075;-75
2022/06/19 07:35:34;;;;;;;7.72;1.33;;;14.00;99.90;;;;;;5093581;28;20080;-75
2022/06/19 07:37:59;;;;;;;8.98;1.63;;;14.00;99.90;;;;;;5092286;28;20062;-75
2022/06/19 07:40:26;;;;;;;9.68;1.10;;;14.00;99.90;;;;;;5093284;28;20040;-74
2022/06/19 07:42:52;;;;;;;4.38;1.40;;;14.00;99.90;;;;;;5089406;28;20422;-76
2022/06/19 07:45:18;;;;;;;6.97;1.20;;;14.00;99.90;;;;;;5093553;28;20040;-75
2022/06/19 07:50:28;;;;;;;9.85;1.30;;;14.00;99.90;;;;;;5092806;28;20048;-75
2022/06/19 07:52:54;;;;;;;9.70;1.20;;;14.10;99.90;;;;;;5093069;28;20101;-76
2022/06/19 07:55:25;;;;;;;8.80;1.45;;;14.10;99.90;;;;;;5093395;28;20089;-75
2022/06/19 07:57:52;;;;;;;12.55;1.75;;;14.10;99.90;;;;;;5089336;28;20479;-74
2022/06/19 08:00:25;;;;;;;10.98;1.60;;;14.10;99.90;;;;;;5080914;28;20048;-77
2022/06/19 08:02:52;;;;;;;11.98;1.60;;;14.10;99.90;;;;;;5088697;28;20403;-75
2022/06/19 08:05:24;;;;;;;9.52;1.20;;;14.20;99.90;;;;;;5084769;28;20952;-75
2022/06/19 08:07:52;;;;;;;11.15;1.35;;;14.20;99.90;;;;;;5087858;28;20090;-75
2022/06/19 08:10:23;;;;;;;8.63;1.33;;;14.20;99.90;;;;;;5083704;28;20051;-74
2022/06/19 08:12:50;;;;;;;8.10;1.25;;;14.30;99.90;;;;;;5085846;28;20571;-75
2022/06/19 08:15:16;;;;;;;8.30;1.02;;;14.30;99.90;;;;;;5086778;28;20040;-76
2022/06/19 08:17:42;;;;;;;6.63;1.15;;;14.30;99.90;;;;;;5091026;28;20028;-76
2022/06/19 08:20:09;;;;;;;6.15;0.90;;;14.30;99.90;;;;;;5085151;28;20039;-74
2022/06/19 08:22:37;;;;;;;10.60;1.17;;;14.30;99.90;;;;;;5088610;28;20346;-74
2022/06/19 08:25:04;;;;;;;6.75;1.00;;;14.30;99.90;;;;;;5085741;28;20117;-74
2022/06/19 08:27:30;;;;;;;7.10;1.08;;;14.40;99.90;;;;;;5064568;28;20060;-74
2022/06/19 08:29:56;;;;;;;8.43;1.15;;;14.30;99.90;;;;;;5086702;28;20048;-75
2022/06/19 08:32:22;;;;;;;8.10;1.33;;;14.40;99.90;;;;;;5082101;28;20040;-72
2022/06/19 08:34:47;;;;;;;7.90;0.90;;;14.40;99.90;;;;;;5086133;28;20435;-73
2022/06/19 08:37:14;;;;;;;7.90;1.08;;;14.40;99.90;;;;;;5086111;28;20048;-74
2022/06/19 08:39:40;;;;;;;6.93;1.00;;;14.40;99.90;;;;;;5089434;28;20044;-74
2022/06/19 08:42:37;;;;;;;5.45;1.00;;;14.40;99.90;;;;;;5083930;28;20044;-73
2022/06/19 08:45:13;;;;;;;7.63;1.30;;;14.40;99.90;;;;;;5077759;28;20104;-72
2022/06/19 08:47:54;;;;;;;9.43;1.40;;;14.40;99.90;;;;;;5088901;28;20050;-74
2022/06/19 08:51:01;;;;;;;6.00;1.58;;;14.40;99.90;;;;;;5081383;28;20456;-72
2022/06/19 08:53:40;;;;;;;10.60;1.48;;;14.40;99.90;;;;;;5082099;28;20056;-74
2022/06/19 08:56:25;;;;;;;7.03;1.40;;;14.50;99.90;;;;;;5087473;28;20803;-74
2022/06/19 08:59:04;;;;;;;6.22;1.23;;;14.50;99.90;;;;;;5086557;28;20040;-72
2022/06/19 09:01:37;;;;;;;7.20;1.30;;;14.50;99.90;;;;;;5086629;28;20120;-72
2022/06/19 09:07:56;;;;;;;8.27;1.05;;;14.50;99.90;;;;;;5085501;28;20078;-72
2022/06/19 09:10:45;;;;;;;7.70;1.00;;;14.60;99.90;;;;;;5090741;28;20106;-74
2022/06/19 09:13:24;;;;;;;6.72;0.73;;;14.60;99.90;;;;;;5086839;28;20383;-73
2022/06/19 09:16:45;;;;;;;4.53;0.90;;;14.60;99.90;;;;;;5090257;28;20109;-74
2022/06/19 09:19:19;;;;;;;6.53;1.00;;;14.60;99.90;;;;;;5007491;28;20049;-74
2022/06/19 09:22:15;;;;;;;4.93;0.85;;;14.60;99.90;;;;;;5081108;28;20071;-73
2022/06/19 09:24:54;;;;;;;3.58;1.00;;;14.60;99.90;;;;;;5087531;28;20043;-74
2022/06/19 09:27:29;;;;;;;5.82;1.02;;;14.60;99.90;;;;;;5090021;28;20115;-74
2022/06/19 09:30:04;;;;;;;8.32;0.98;;;14.60;99.90;;;;;;5090235;28;20059;-72
2022/06/19 09:32:35;;;;;;;5.97;0.80;;;14.60;99.90;;;;;;5085630;28;20052;-74
2022/06/19 09:35:25;;;;;;;5.90;0.80;;;14.60;99.90;;;;;;5092119;28;20141;-75
2022/06/19 09:37:58;;;;;;;7.60;1.30;;;14.70;99.90;;;;;;5083163;28;20510;-74
2022/06/19 09:40:28;;;;;;;5.07;0.93;;;14.70;99.90;;;;;;5083786;28;20399;-73
2022/06/19 09:43:04;;;;;;;4.07;0.70;;;14.80;99.90;;;;;;5085389;28;20380;-74
2022/06/19 09:45:54;;;;;;;7.55;0.70;;;14.80;99.90;;;;;;5091175;28;20036;-73
2022/06/19 09:48:19;;;;;;;6.53;0.90;;;14.80;99.90;;;;;;5087299;28;20475;-72
2022/06/19 09:50:49;;;;;;;7.93;0.75;;;14.90;99.90;;;;;;5090175;28;20048;-74
2022/06/19 09:53:30;;;;;;;3.67;1.05;;;15.00;99.90;;;;;;5086247;28;20388;-74
2022/06/19 09:56:19;;;;;;;6.80;0.80;;;15.10;99.90;;;;;;5085541;28;20085;-73
2022/06/19 09:58:58;;;;;;;3.25;1.17;;;15.10;99.90;;;;;;5089137;28;20147;-74
2022/06/19 10:01:25;;;;;;;3.53;1.00;;;15.10;99.90;;;;;;5087752;28;20390;-74
2022/06/19 10:04:43;;;;;;;10.25;1.90;;;15.10;99.90;;;;;;5083194;28;20396;-74
2022/06/19 10:07:39;;;;;;;5.38;1.13;;;15.10;99.90;;;;;;5035519;28;20442;-73
2022/06/19 10:10:16;;;;;;;3.45;0.65;;;15.10;99.90;;;;;;5079645;28;20088;-73
2022/06/19 10:12:47;;;;;;;4.70;1.00;;;15.00;99.90;;;;;;5082719;28;20048;-73
2022/06/19 10:15:19;;;;;;;3.80;0.50;;;15.10;99.90;;;;;;5089148;28;20068;-73
2022/06/19 10:17:56;;;;;;;3.50;0.50;;;15.10;99.90;;;;;;5086314;28;20396;-73
2022/06/19 10:20:37;;;;;;;4.32;0.70;;;15.10;99.90;;;;;;5089314;28;20048;-73
2022/06/19 10:23:23;;;;;;;2.47;0.43;;;15.10;99.90;;;;;;5087565;28;20073;-74
2022/06/19 10:26:18;;;;;;;2.50;0.47;;;15.10;99.90;;;;;;5088529;28;20048;-73
2022/06/19 10:29:02;;;;;;;4.88;0.80;;;15.10;99.90;;;;;;5084593;28;20113;-75
2022/06/19 10:31:40;;;;;;;7.13;0.70;;;15.10;99.90;;;;;;5087303;28;20094;-75
2022/06/19 10:34:40;;;;;;;3.28;0.50;;;15.10;99.90;;;;;;5083769;28;20063;-74
2022/06/19 10:37:31;;;;;;;2.90;1.02;;;15.20;99.90;;;;;;5089837;28;20052;-75
2022/06/19 10:40:03;;;;;;;4.43;0.70;;;15.30;99.90;;;;;;5085529;28;20510;-76
2022/06/19 10:43:17;;;;;;;3.83;0.50;;;15.30;99.90;;;;;;5086974;28;20056;-77
2022/06/19 10:45:46;;;;;;;2.35;0.93;;;15.40;99.90;;;;;;5072030;28;20063;-74
2022/06/19 10:48:28;;;;;;;2.47;0.60;;;15.40;99.90;;;;;;5085483;28;20051;-73
2022/06/19 10:51:32;;;;;;;2.22;0.60;;;15.40;99.90;;;;;;5084734;28;20333;-71
2022/06/19 10:54:16;;;;;;;;;;;15.40;99.90;;;;;;5075230;28;20044;-72
2022/06/19 10:57:00;;;;;;;2.70;0.50;;;15.40;99.90;;;;;;5081863;28;19924;-71
2022/06/19 10:59:27;;;;;;;4.10;0.50;;;15.40;99.90;;;;;;5082904;28;20047;-72
2022/06/19 11:05:26;;;;;;;3.65;0.50;;;15.40;99.90;;;;;;5087399;28;20138;-72
2022/06/19 11:07:52;;;;;;;2.92;0.50;;;15.40;99.90;;;;;;5089342;28;20161;-71
2022/06/19 11:10:35;;;;;;;2.15;0.40;;;15.40;99.90;;;;;;5085249;28;20131;-73
2022/06/19 11:13:03;;;;;;;1.95;0.60;;;15.40;99.90;;;;;;5086608;28;20127;-73
2022/06/19 11:15:36;;;;;;;1.35;0.40;;;15.40;99.90;;;;;;5085975;28;20060;-70
2022/06/19 11:18:12;;;;;;;1.73;0.40;;;15.40;99.90;;;;;;5082363;28;20436;-68
2022/06/19 11:20:44;;;;;;;3.42;0.40;;;15.40;99.90;;;;;;5088730;28;20048;-73
2022/06/19 11:23:20;;;;;;;3.20;0.40;;;15.40;99.90;;;;;;5082884;28;20776;-73
2022/06/19 11:26:03;;;;;;;1.10;0.35;;;15.40;99.90;;;;;;5087664;28;20072;-75
2022/06/19 11:28:38;;;;;;;2.80;0.38;;;15.40;99.90;;;;;;5088033;28;20838;-74
2022/06/19 11:31:12;;;;;;;1.38;0.40;;;15.40;99.90;;;;;;5082419;28;20491;-75
2022/06/19 11:33:38;;;;;;;1.52;0.32;;;15.40;99.90;;;;;;5080857;28;20907;-72
2022/06/19 11:36:08;;;;;;;0.73;0.30;;;15.40;99.90;;;;;;5080323;28;20127;-75
2022/06/19 11:38:44;;;;;;;0.90;0.50;;;15.40;99.90;;;;;;5080172;28;20044;-72
2022/06/19 11:41:30;;;;;;;1.70;0.52;;;15.30;99.90;;;;;;5081269;28;20043;-70
2022/06/19 11:44:18;;;;;;;2.47;0.40;;;15.30;99.90;;;;;;5080885;28;20056;-72
2022/06/19 11:46:55;;;;;;;2.20;0.50;;;15.30;99.90;;;;;;5087587;28;20054;-71
2022/06/19 11:49:26;;;;;;;1.17;0.50;;;15.40;99.90;;;;;;5085785;28;20419;-72
2022/06/19 11:51:56;;;;;;;1.33;0.30;;;15.40;99.90;;;;;;5082920;28;20051;-75
2022/06/19 11:54:30;;;;;;;1.85;0.30;;;15.40;99.90;;;;;;5084152;28;20056;-73
2022/06/19 11:56:57;;;;;;;1.63;0.40;;;15.40;99.90;;;;;;5085920;28;20138;-72
2022/06/19 11:59:45;;;;;;;2.25;0.50;;;15.40;99.90;;;;;;5080857;28;20040;-74
2022/06/19 12:02:26;;;;;;;1.67;0.43;;;15.40;99.90;;;;;;5086752;28;20052;-74
2022/06/19 12:04:57;;;;;;;1.38;0.32;;;15.30;99.90;;;;;;5082868;28;20060;-74
2022/06/19 12:07:28;;;;;;;2.08;0.30;;;15.30;99.90;;;;;;5088833;28;20375;-74
2022/06/19 12:10:00;;;;;;;1.85;0.50;;;15.30;99.90;;;;;;5087020;28;20051;-74
2022/06/19 12:12:27;;;;;;;1.75;0.30;;;15.30;99.90;;;;;;5083117;28;20048;-74
2022/06/19 12:15:13;;;;;;;0.88;0.40;;;15.20;99.90;;;;;;5081066;28;20191;-74
2022/06/19 12:17:42;;;;;;;2.63;0.40;;;15.20;99.90;;;;;;5116542;28;20063;-75
2022/06/19 12:20:08;;;;;;;1.23;0.40;;;15.10;99.90;;;;;;5083226;28;20496;-75
2022/06/19 12:22:55;;;;;;;1.90;0.63;;;15.10;99.90;;;;;;5079289;28;20048;-75
2022/06/19 12:25:32;;;;;;;0.70;0.50;;;15.10;99.90;;;;;;5086642;28;20488;-75
2022/06/19 12:28:26;;;;;;;1.05;0.32;;;15.10;99.90;;;;;;5084778;28;20048;-74
2022/06/19 12:31:18;;;;;;;2.65;0.50;;;15.10;99.90;;;;;;5090063;28;20047;-74
2022/06/19 12:33:46;;;;;;;2.47;0.50;;;15.10;99.90;;;;;;5085406;28;20059;-71
2022/06/19 12:36:17;;;;;;;1.92;0.50;;;15.10;99.90;;;;;;5086755;28;20071;-73
2022/06/19 12:38:43;;;;;;;1.27;0.43;;;15.10;99.90;;;;;;5088523;28;20063;-74
2022/06/19 12:41:15;;;;;;;1.73;0.50;;;15.10;99.90;;;;;;5088003;28;20480;-73
2022/06/19 12:44:11;;;;;;;1.50;0.40;;;15.10;99.90;;;;;;5087936;28;20079;-74
2022/06/19 12:46:54;;;;;;;1.23;0.50;;;15.10;99.90;;;;;;5091399;28;20286;-74
2022/06/19 12:49:51;;;;;;;2.58;0.52;;;15.10;99.90;;;;;;5090933;28;20458;-73
2022/06/19 12:52:46;;;;;;;2.22;0.50;;;15.20;99.90;;;;;;5070704;28;20493;-74
2022/06/19 12:55:12;;;;;;;2.25;0.40;;;15.20;99.90;;;;;;5087645;28;20044;-74
2022/06/19 12:57:38;;;;;;;1.65;0.40;;;15.30;99.90;;;;;;5089846;28;20052;-73
2022/06/19 13:00:25;;;;;;;2.53;0.50;;;15.30;99.90;;;;;;5089122;28;20059;-72
2022/06/19 13:03:18;;;;;;;1.65;0.40;;;15.30;99.90;;;;;;5086823;28;20112;-74
2022/06/19 13:06:17;;;;;;;2.30;0.77;;;15.30;99.90;;;;;;5088953;28;20122;-73
2022/06/19 13:09:23;;;;;;;4.45;0.50;;;15.30;99.90;;;;;;5088737;28;20624;-70
2022/06/19 13:12:22;;;;;;;2.63;0.50;;;15.30;99.90;;;;;;5084739;28;20521;-71
2022/06/19 13:15:15;;;;;;;1.95;0.60;;;15.30;99.90;;;;;;5087573;28;20086;-72
2022/06/19 13:17:46;;;;;;;1.67;0.50;;;15.30;99.90;;;;;;5087226;28;20040;-70
2022/06/19 13:20:27;;;;;;;2.60;0.50;;;15.30;99.90;;;;;;5085514;28;20082;-71